createdAt,value
2023-04-11T00:02:33.436Z,14.40
2023-04-11T00:06:34.800Z,14.40
2023-04-11T00:10:36.010Z,14.00
2023-04-11T00:14:37.750Z,13.90
2023-04-11T00:18:40.932Z,13.90
2023-04-11T00:22:43.109Z,13.90
2023-04-11T00:26:44.331Z,14.00
2023-04-11T00:30:45.456Z,14.00
2023-04-11T00:34:46.641Z,14.00
2023-04-11T00:38:47.854Z,14.00
2023-04-11T00:42:49.156Z,13.90
2023-04-11T00:46:50.521Z,14.10
2023-04-11T00:50:51.693Z,14.10
2023-04-11T00:54:52.876Z,14.00
2023-04-11T00:58:55.164Z,14.10
2023-04-11T01:02:56.771Z,14.10
2023-04-11T01:07:05.198Z,14.00
2023-04-11T01:11:08.792Z,14.10
2023-04-11T01:15:10.106Z,14.10
2023-04-11T01:19:13.361Z,14.00
2023-04-11T01:23:20.784Z,13.90
2023-04-11T01:27:22.051Z,13.90
2023-04-11T01:31:23.261Z,13.80
2023-04-11T01:35:24.587Z,13.90
2023-04-11T01:39:25.931Z,13.90
2023-04-11T01:43:27.132Z,13.70
2023-04-11T01:47:28.326Z,13.70
2023-04-11T01:51:29.859Z,13.60
2023-04-11T01:55:31.021Z,13.30
2023-04-11T01:59:32.192Z,13.20
2023-04-11T02:03:33.446Z,13.20
2023-04-11T02:07:34.592Z,13.40
2023-04-11T02:11:35.758Z,13.30
2023-04-11T02:15:36.939Z,13.30
2023-04-11T02:19:40.480Z,13.10
2023-04-11T02:23:41.657Z,13.10
2023-04-11T02:27:42.820Z,13.00
2023-04-11T02:31:44.075Z,13.00
2023-04-11T02:35:45.688Z,12.90
2023-04-11T02:39:46.856Z,12.90
2023-04-11T02:43:48.015Z,12.90
2023-04-11T02:47:49.245Z,12.80
2023-04-11T02:51:50.478Z,12.80
2023-04-11T02:55:51.648Z,12.80
2023-04-11T02:59:52.817Z,12.80
2023-04-11T03:03:54.059Z,12.60
2023-04-11T03:07:57.158Z,12.50
2023-04-11T03:11:58.331Z,12.40
2023-04-11T03:15:59.529Z,12.40
2023-04-11T03:20:00.660Z,12.30
2023-04-11T03:24:02.151Z,12.10
2023-04-11T03:28:04.150Z,12.10
2023-04-11T03:32:05.660Z,12.00
2023-04-11T03:36:07.501Z,12.00
2023-04-11T03:40:09.329Z,11.80
2023-04-11T03:44:10.620Z,11.80
2023-04-11T03:48:11.875Z,11.60
2023-04-11T03:52:14.343Z,11.60
2023-04-11T03:56:15.537Z,11.40
2023-04-11T04:00:19.332Z,11.70
2023-04-11T04:04:20.549Z,11.70
2023-04-11T04:08:21.960Z,11.70
2023-04-11T04:12:23.115Z,11.80
2023-04-11T04:16:24.311Z,11.70
2023-04-11T04:20:25.555Z,11.90
2023-04-11T04:24:26.707Z,11.90
2023-04-11T04:28:28.770Z,11.90
2023-04-11T04:32:30.028Z,11.80
2023-04-11T04:36:31.178Z,11.80
2023-04-11T04:40:32.337Z,11.70
2023-04-11T04:44:33.487Z,11.60
2023-04-11T04:48:35.790Z,11.80
2023-04-11T04:52:36.956Z,11.60
2023-04-11T04:56:39.002Z,11.60
2023-04-11T05:00:40.324Z,11.60
2023-04-11T05:04:41.859Z,11.60
2023-04-11T05:08:43.083Z,11.70
2023-04-11T05:12:44.300Z,11.80
2023-04-11T05:16:45.861Z,11.70
2023-04-11T05:20:49.359Z,11.60
2023-04-11T05:24:50.949Z,11.70
2023-04-11T05:28:52.101Z,11.70
2023-04-11T05:32:53.306Z,11.70
2023-04-11T05:36:54.542Z,11.60
2023-04-11T05:40:56.757Z,11.60
2023-04-11T05:44:58.056Z,11.60
2023-04-11T05:49:00.327Z,11.70
2023-04-11T05:53:02.725Z,11.70
2023-04-11T05:57:03.915Z,11.80
2023-04-11T06:01:06.586Z,11.90
2023-04-11T06:05:11.083Z,12.00
2023-04-11T06:09:12.973Z,11.90
2023-04-11T06:13:14.137Z,12.10
2023-04-11T06:17:15.309Z,12.10
2023-04-11T06:21:16.462Z,12.30
2023-04-11T06:25:19.239Z,12.30
2023-04-11T06:29:20.412Z,12.40
2023-04-11T06:33:21.614Z,12.30
2023-04-11T06:37:23.187Z,12.10
2023-04-11T06:41:24.490Z,12.40
2023-04-11T06:45:25.756Z,12.50
2023-04-11T06:49:30.769Z,12.60
2023-04-11T06:53:31.943Z,12.60
2023-04-11T06:57:33.411Z,12.80
2023-04-11T07:01:37.826Z,13.00
2023-04-11T07:05:39.630Z,13.10
2023-04-11T07:09:40.960Z,13.40
2023-04-11T07:13:42.116Z,13.50
2023-04-11T07:17:43.429Z,13.60
2023-04-11T07:21:44.555Z,13.90
2023-04-11T07:25:45.720Z,14.00
2023-04-11T07:29:46.884Z,14.20
2023-04-11T07:33:48.069Z,14.60
2023-04-11T07:37:49.237Z,14.60
2023-04-11T07:41:50.448Z,14.70
2023-04-11T07:45:53.568Z,14.80
2023-04-11T07:49:54.687Z,15.00
2023-04-11T07:53:56.007Z,14.90
2023-04-11T07:57:57.339Z,15.70
2023-04-11T08:02:04.098Z,15.60
2023-04-11T08:06:05.743Z,15.60
2023-04-11T08:10:08.020Z,15.20
2023-04-11T08:14:09.201Z,15.50
2023-04-11T08:18:12.207Z,15.60
2023-04-11T08:22:14.086Z,15.50
2023-04-11T08:26:16.256Z,15.50
2023-04-11T08:30:17.513Z,15.30
2023-04-11T08:34:18.666Z,15.10
2023-04-11T08:38:20.237Z,14.80
2023-04-11T08:42:26.742Z,15.00
2023-04-11T08:46:29.326Z,15.00
2023-04-11T08:50:30.559Z,14.90
2023-04-11T08:54:31.727Z,14.80
2023-04-11T08:58:32.930Z,14.70
2023-04-11T09:02:34.251Z,14.70
2023-04-11T09:06:36.287Z,15.00
2023-04-11T09:10:39.658Z,15.30
2023-04-11T09:14:41.307Z,15.40
2023-04-11T09:18:46.444Z,15.60
2023-04-11T09:22:49.649Z,15.50
2023-04-11T09:26:50.872Z,15.60
2023-04-11T09:30:54.529Z,15.70
2023-04-11T09:35:08.796Z,16.20
2023-04-11T09:39:17.585Z,16.40
2023-04-11T09:43:20.276Z,17.00
2023-04-11T09:47:21.590Z,16.30
2023-04-11T09:55:26.406Z,16.90
2023-04-11T09:59:29.165Z,17.90
2023-04-11T10:03:37.732Z,18.00
2023-04-11T10:08:05.621Z,18.30
2023-04-11T10:12:07.084Z,18.40
2023-04-11T10:16:19.573Z,18.20
2023-04-11T10:20:45.519Z,18.90
2023-04-11T10:25:10.577Z,19.00
2023-04-11T10:29:32.435Z,18.50
2023-04-11T10:33:35.391Z,18.40
2023-04-11T10:37:36.635Z,17.20
2023-04-11T10:41:37.853Z,15.80
2023-04-11T10:45:39.630Z,16.00
2023-04-11T10:49:40.802Z,16.30
2023-04-11T10:53:42.077Z,16.80
2023-04-11T10:58:02.642Z,17.70
2023-04-11T11:02:04.167Z,18.20
2023-04-11T11:06:07.388Z,18.50
2023-04-11T11:10:09.286Z,19.10
2023-04-11T11:14:10.467Z,19.20
2023-04-11T11:18:14.358Z,18.70
2023-04-11T11:22:18.290Z,17.80
2023-04-11T11:26:19.465Z,17.50
2023-04-11T11:30:20.826Z,17.50
2023-04-11T11:34:32.459Z,17.80
2023-04-11T11:38:33.803Z,18.10
2023-04-11T11:42:39.558Z,18.40
2023-04-11T11:46:44.659Z,19.00
2023-04-11T11:50:45.794Z,18.90
2023-04-11T11:54:47.229Z,19.10
2023-04-11T11:58:49.842Z,19.60
2023-04-11T12:02:52.363Z,20.30
2023-04-11T12:06:54.275Z,20.70
2023-04-11T12:10:55.425Z,20.70
2023-04-11T12:14:56.609Z,20.60
2023-04-11T12:18:59.774Z,20.40
2023-04-11T12:23:00.953Z,20.50
2023-04-11T12:27:07.428Z,20.30
2023-04-11T12:31:06.160Z,20.10
2023-04-11T12:35:07.928Z,20.10
2023-04-11T12:39:09.057Z,20.00
2023-04-11T12:43:10.413Z,20.10
2023-04-11T12:47:11.567Z,20.90
2023-04-11T12:51:12.761Z,20.80
2023-04-11T12:55:14.080Z,20.90
2023-04-11T12:59:16.201Z,19.80
2023-04-11T13:03:17.991Z,18.90
2023-04-11T13:07:21.944Z,18.30
2023-04-11T13:11:23.116Z,17.10
2023-04-11T13:15:24.275Z,16.50
2023-04-11T13:19:25.499Z,16.40
2023-04-11T13:23:26.664Z,16.50
2023-04-11T13:27:27.861Z,17.00
2023-04-11T13:31:29.118Z,17.10
2023-04-11T13:35:30.352Z,17.60
2023-04-11T13:39:31.526Z,17.80
2023-04-11T13:43:32.716Z,17.90
2023-04-11T13:47:35.443Z,17.50
2023-04-11T13:51:36.913Z,17.40
2023-04-11T13:55:38.083Z,17.60
2023-04-11T13:59:39.239Z,17.50
2023-04-11T14:03:42.105Z,17.40
2023-04-11T14:07:43.412Z,17.20
2023-04-11T14:11:44.605Z,17.20
2023-04-11T14:15:47.732Z,16.80
2023-04-11T14:19:48.928Z,16.80
2023-04-11T14:23:50.509Z,16.70
2023-04-11T14:27:52.336Z,16.60
2023-04-11T14:31:53.645Z,16.60
2023-04-11T14:35:55.273Z,16.60
2023-04-11T14:39:56.545Z,16.60
2023-04-11T14:43:57.968Z,16.50
2023-04-11T14:47:59.452Z,16.30
2023-04-11T14:52:01.393Z,16.30
2023-04-11T14:56:06.234Z,16.10
2023-04-11T15:00:11.886Z,15.50
2023-04-11T15:04:14.160Z,15.50
2023-04-11T15:08:15.541Z,15.20
2023-04-11T15:12:16.702Z,15.10
2023-04-11T15:16:19.322Z,15.20
2023-04-11T15:20:21.336Z,15.20
2023-04-11T15:24:22.503Z,15.70
2023-04-11T15:28:26.045Z,15.90
2023-04-11T15:32:28.161Z,16.20
2023-04-11T15:36:29.407Z,16.10
2023-04-11T15:40:30.894Z,15.90
2023-04-11T15:44:32.439Z,16.30
2023-04-11T15:48:33.624Z,16.20
2023-04-11T15:52:34.981Z,16.40
2023-04-11T15:56:36.166Z,16.30
2023-04-11T16:00:38.356Z,16.40
2023-04-11T16:04:42.145Z,16.80
2023-04-11T16:08:44.723Z,16.70
2023-04-11T16:12:45.891Z,16.60
2023-04-11T16:16:47.226Z,16.90
2023-04-11T16:20:48.404Z,16.70
2023-04-11T16:24:49.780Z,16.40
2023-04-11T16:28:50.956Z,16.50
2023-04-11T16:32:52.141Z,16.40
2023-04-11T16:36:53.306Z,16.20
2023-04-11T16:40:54.967Z,16.10
2023-04-11T16:44:56.160Z,16.00
2023-04-11T16:49:01.041Z,15.80
2023-04-11T16:53:02.230Z,15.50
2023-04-11T16:57:03.411Z,15.50
2023-04-11T17:01:06.154Z,15.40
2023-04-11T17:05:08.307Z,15.50
2023-04-11T17:09:10.255Z,15.40
2023-04-11T17:13:11.482Z,15.40
2023-04-11T17:17:12.658Z,15.40
2023-04-11T17:21:13.815Z,15.50
2023-04-11T17:25:15.361Z,15.50
2023-04-11T17:29:16.650Z,15.50
2023-04-11T17:33:18.223Z,15.40
2023-04-11T17:37:19.873Z,15.20
2023-04-11T17:41:21.488Z,15.30
2023-04-11T17:45:23.018Z,15.30
2023-04-11T17:49:26.579Z,15.10
2023-04-11T17:53:28.495Z,15.20
2023-04-11T17:57:30.143Z,15.20
2023-04-11T18:01:31.849Z,15.20
2023-04-11T18:05:34.452Z,15.10
2023-04-11T18:09:35.652Z,15.00
2023-04-11T18:13:36.845Z,15.10
2023-04-11T18:17:40.079Z,14.90
2023-04-11T18:21:41.386Z,14.90
2023-04-11T18:25:42.542Z,14.90
2023-04-11T18:29:45.238Z,14.70
2023-04-11T18:33:59.690Z,14.70
2023-04-11T18:37:49.529Z,14.70
2023-04-11T18:41:51.104Z,14.50
2023-04-11T18:45:52.273Z,14.50
2023-04-11T18:49:53.458Z,14.50
2023-04-11T18:53:55.463Z,14.50
2023-04-11T18:57:59.473Z,14.40
2023-04-11T19:02:00.412Z,14.20
2023-04-11T19:06:02.217Z,14.40
2023-04-11T19:10:03.869Z,14.50
2023-04-11T19:14:05.565Z,14.30
2023-04-11T19:18:07.006Z,14.10
2023-04-11T19:22:08.649Z,14.00
2023-04-11T19:26:10.657Z,14.00
2023-04-11T19:30:12.897Z,13.90
2023-04-11T19:34:14.612Z,13.80
2023-04-11T19:38:15.813Z,13.70
2023-04-11T19:42:18.299Z,13.60
2023-04-11T19:46:19.549Z,13.60
2023-04-11T19:50:22.268Z,13.50
2023-04-11T19:54:23.797Z,13.40
2023-04-11T19:58:25.016Z,13.30
2023-04-11T20:02:26.459Z,13.30
2023-04-11T20:06:27.725Z,13.20
2023-04-11T20:10:31.168Z,13.00
2023-04-11T20:14:32.873Z,13.10
2023-04-11T20:18:34.028Z,12.90
2023-04-11T20:22:37.808Z,12.90
2023-04-11T20:26:39.011Z,12.80
2023-04-11T20:30:40.562Z,12.80
2023-04-11T20:34:42.356Z,12.70
2023-04-11T20:38:43.580Z,12.70
2023-04-11T20:42:45.226Z,12.70
2023-04-11T20:46:47.550Z,12.70
2023-04-11T20:50:49.326Z,12.70
2023-04-11T20:54:50.544Z,12.80
2023-04-11T20:58:51.981Z,12.90
2023-04-11T21:02:53.648Z,12.90
2023-04-11T21:06:56.315Z,13.00
2023-04-11T21:10:57.494Z,12.90
2023-04-11T21:14:58.984Z,12.80
2023-04-11T21:19:01.479Z,12.60
2023-04-11T21:23:02.648Z,12.60
2023-04-11T21:27:03.923Z,12.70
2023-04-11T21:31:05.740Z,12.60
2023-04-11T21:35:09.507Z,12.50
2023-04-11T21:39:10.783Z,12.50
2023-04-11T21:43:12.436Z,12.50
2023-04-11T21:47:13.611Z,12.70
2023-04-11T21:51:15.568Z,12.70
2023-04-11T21:55:16.758Z,12.70
2023-04-11T21:59:17.918Z,12.70
2023-04-11T22:03:19.669Z,12.80
2023-04-11T22:07:23.476Z,12.80
2023-04-11T22:11:24.958Z,12.80
2023-04-11T22:15:26.107Z,12.90
2023-04-11T22:19:27.864Z,12.90
2023-04-11T22:23:29.252Z,13.00
2023-04-11T22:27:32.367Z,12.70
2023-04-11T22:31:34.374Z,12.70
2023-04-11T22:35:35.741Z,12.60
2023-04-11T22:39:36.895Z,12.60
2023-04-11T22:43:38.092Z,12.60
2023-04-11T22:47:39.568Z,12.60
2023-04-11T22:51:41.020Z,12.50
2023-04-11T22:55:42.397Z,12.50
2023-04-11T22:59:43.619Z,12.50
2023-04-11T23:03:47.185Z,12.40
2023-04-11T23:07:48.324Z,12.40
2023-04-11T23:11:49.488Z,12.40
2023-04-11T23:15:51.060Z,12.50
2023-04-11T23:19:52.391Z,12.50
2023-04-11T23:23:53.833Z,12.30
2023-04-11T23:27:55.002Z,12.30
2023-04-11T23:31:56.743Z,12.20
2023-04-11T23:35:57.936Z,12.30
2023-04-11T23:40:01.081Z,12.20
2023-04-11T23:44:02.258Z,12.30
2023-04-11T23:48:03.972Z,12.20
2023-04-11T23:52:05.191Z,12.20
2023-04-11T23:56:07.093Z,12.10
